sensor_id;sensor_type;location;lat;lon;timestamp;temperature;humidity
15127;DHT22;7664;52.008;4.748;2023-11-19T00:06:07;12.90;99.90
15127;DHT22;7664;52.008;4.748;2023-11-19T00:08:38;13.10;99.90
15127;DHT22;7664;52.008;4.748;2023-11-19T00:11:06;13.10;99.90
15127;DHT22;7664;52.008;4.748;2023-11-19T00:13:35;13.30;99.90
15127;DHT22;7664;52.008;4.748;2023-11-19T00:16:03;13.30;99.90
15127;DHT22;7664;52.008;4.748;2023-11-19T00:18:32;13.40;99.90
15127;DHT22;7664;52.008;4.748;2023-11-19T00:21:00;13.60;99.90
15127;DHT22;7664;52.008;4.748;2023-11-19T00:23:30;13.60;99.90
15127;DHT22;7664;52.008;4.748;2023-11-19T00:25:58;13.90;99.90
15127;DHT22;7664;52.008;4.748;2023-11-19T00:28:26;13.70;99.90
15127;DHT22;7664;52.008;4.748;2023-11-19T00:30:54;13.70;99.90
15127;DHT22;7664;52.008;4.748;2023-11-19T00:33:23;13.90;99.90
15127;DHT22;7664;52.008;4.748;2023-11-19T00:35:51;14.10;99.90
15127;DHT22;7664;52.008;4.748;2023-11-19T00:38:19;13.90;99.90
15127;DHT22;7664;52.008;4.748;2023-11-19T00:40:48;13.90;99.90
15127;DHT22;7664;52.008;4.748;2023-11-19T00:43:16;13.90;99.90
15127;DHT22;7664;52.008;4.748;2023-11-19T00:45:45;13.90;99.90
15127;DHT22;7664;52.008;4.748;2023-11-19T00:48:13;13.80;99.90
15127;DHT22;7664;52.008;4.748;2023-11-19T00:50:41;14.00;99.90
15127;DHT22;7664;52.008;4.748;2023-11-19T00:53:11;13.90;99.90
15127;DHT22;7664;52.008;4.748;2023-11-19T00:55:39;13.90;99.90
15127;DHT22;7664;52.008;4.748;2023-11-19T00:58:11;13.90;99.90
15127;DHT22;7664;52.008;4.748;2023-11-19T01:00:40;14.00;99.90
15127;DHT22;7664;52.008;4.748;2023-11-19T01:03:10;14.00;99.90
15127;DHT22;7664;52.008;4.748;2023-11-19T01:05:38;14.00;99.90
15127;DHT22;7664;52.008;4.748;2023-11-19T01:08:06;14.00;99.90
15127;DHT22;7664;52.008;4.748;2023-11-19T01:10:36;13.90;99.90
15127;DHT22;7664;52.008;4.748;2023-11-19T01:13:05;13.90;99.90
15127;DHT22;7664;52.008;4.748;2023-11-19T01:15:34;13.90;99.90
15127;DHT22;7664;52.008;4.748;2023-11-19T01:18:02;13.80;99.90
15127;DHT22;7664;52.008;4.748;2023-11-19T01:20:31;13.90;99.90
15127;DHT22;7664;52.008;4.748;2023-11-19T01:23:01;13.80;99.90
15127;DHT22;7664;52.008;4.748;2023-11-19T01:25:29;13.90;99.90
15127;DHT22;7664;52.008;4.748;2023-11-19T01:27:58;13.80;99.90
15127;DHT22;7664;52.008;4.748;2023-11-19T01:30:26;13.70;99.90
15127;DHT22;7664;52.008;4.748;2023-11-19T01:32:55;13.70;99.90
15127;DHT22;7664;52.008;4.748;2023-11-19T01:35:23;13.80;99.90
15127;DHT22;7664;52.008;4.748;2023-11-19T01:37:54;13.70;99.90
15127;DHT22;7664;52.008;4.748;2023-11-19T01:40:22;13.60;99.90
15127;DHT22;7664;52.008;4.748;2023-11-19T01:42:50;13.70;99.90
15127;DHT22;7664;52.008;4.748;2023-11-19T01:45:27;13.70;99.90
15127;DHT22;7664;52.008;4.748;2023-11-19T01:48:01;13.60;99.90
15127;DHT22;7664;52.008;4.748;2023-11-19T01:50:30;13.60;99.90
15127;DHT22;7664;52.008;4.748;2023-11-19T01:52:59;13.60;99.90
15127;DHT22;7664;52.008;4.748;2023-11-19T01:55:28;13.60;99.90
15127;DHT22;7664;52.008;4.748;2023-11-19T01:57:59;13.50;99.90
15127;DHT22;7664;52.008;4.748;2023-11-19T02:00:29;13.60;99.90
15127;DHT22;7664;52.008;4.748;2023-11-19T02:03:01;13.40;99.90
15127;DHT22;7664;52.008;4.748;2023-11-19T02:05:30;13.40;99.90
15127;DHT22;7664;52.008;4.748;2023-11-19T02:07:59;13.30;99.90
15127;DHT22;7664;52.008;4.748;2023-11-19T02:10:27;13.30;99.90
15127;DHT22;7664;52.008;4.748;2023-11-19T02:12:55;13.30;99.90
15127;DHT22;7664;52.008;4.748;2023-11-19T02:15:32;13.20;99.90
15127;DHT22;7664;52.008;4.748;2023-11-19T02:18:23;13.30;99.90
15127;DHT22;7664;52.008;4.748;2023-11-19T02:20:54;13.20;99.90
15127;DHT22;7664;52.008;4.748;2023-11-19T02:23:23;13.20;99.90
15127;DHT22;7664;52.008;4.748;2023-11-19T02:26:08;13.20;99.90
15127;DHT22;7664;52.008;4.748;2023-11-19T02:28:42;13.20;99.90
15127;DHT22;7664;52.008;4.748;2023-11-19T02:31:11;13.10;99.90
15127;DHT22;7664;52.008;4.748;2023-11-19T02:33:40;13.10;99.90
15127;DHT22;7664;52.008;4.748;2023-11-19T02:36:09;13.20;99.90
15127;DHT22;7664;52.008;4.748;2023-11-19T02:38:38;13.20;99.90
15127;DHT22;7664;52.008;4.748;2023-11-19T02:41:07;13.10;99.90
15127;DHT22;7664;52.008;4.748;2023-11-19T02:43:37;13.20;99.90
15127;DHT22;7664;52.008;4.748;2023-11-19T02:46:07;13.10;99.90
15127;DHT22;7664;52.008;4.748;2023-11-19T02:48:39;13.10;99.90
15127;DHT22;7664;52.008;4.748;2023-11-19T02:51:08;13.10;99.90
15127;DHT22;7664;52.008;4.748;2023-11-19T02:53:38;13.00;99.90
15127;DHT22;7664;52.008;4.748;2023-11-19T02:56:08;13.00;99.90
15127;DHT22;7664;52.008;4.748;2023-11-19T02:58:46;13.00;99.90
15127;DHT22;7664;52.008;4.748;2023-11-19T03:01:23;13.00;99.90
15127;DHT22;7664;52.008;4.748;2023-11-19T03:03:58;13.00;99.90
15127;DHT22;7664;52.008;4.748;2023-11-19T03:06:29;13.00;99.90
15127;DHT22;7664;52.008;4.748;2023-11-19T03:08:57;13.00;99.90
15127;DHT22;7664;52.008;4.748;2023-11-19T03:11:25;12.90;99.90
15127;DHT22;7664;52.008;4.748;2023-11-19T03:13:53;12.80;99.90
15127;DHT22;7664;52.008;4.748;2023-11-19T03:16:23;12.80;99.90
15127;DHT22;7664;52.008;4.748;2023-11-19T03:18:51;12.80;99.90
15127;DHT22;7664;52.008;4.748;2023-11-19T03:21:19;12.80;99.90
15127;DHT22;7664;52.008;4.748;2023-11-19T03:23:47;12.80;99.90
15127;DHT22;7664;52.008;4.748;2023-11-19T03:26:15;12.80;99.90
15127;DHT22;7664;52.008;4.748;2023-11-19T03:28:44;12.80;99.90
15127;DHT22;7664;52.008;4.748;2023-11-19T03:31:12;12.70;99.90
15127;DHT22;7664;52.008;4.748;2023-11-19T03:33:42;12.80;99.90
15127;DHT22;7664;52.008;4.748;2023-11-19T03:36:10;12.70;99.90
15127;DHT22;7664;52.008;4.748;2023-11-19T03:38:40;12.70;99.90
15127;DHT22;7664;52.008;4.748;2023-11-19T03:41:12;12.70;99.90
15127;DHT22;7664;52.008;4.748;2023-11-19T03:43:41;13.10;99.90
15127;DHT22;7664;52.008;4.748;2023-11-19T03:46:18;12.70;99.90
15127;DHT22;7664;52.008;4.748;2023-11-19T03:48:50;12.60;99.90
15127;DHT22;7664;52.008;4.748;2023-11-19T03:51:18;12.60;99.90
15127;DHT22;7664;52.008;4.748;2023-11-19T03:53:46;12.70;99.90
15127;DHT22;7664;52.008;4.748;2023-11-19T03:56:14;12.60;99.90
15127;DHT22;7664;52.008;4.748;2023-11-19T03:58:42;12.70;99.90
15127;DHT22;7664;52.008;4.748;2023-11-19T04:01:13;12.60;99.90
15127;DHT22;7664;52.008;4.748;2023-11-19T04:03:42;12.60;99.90
15127;DHT22;7664;52.008;4.748;2023-11-19T04:06:14;12.70;99.90
15127;DHT22;7664;52.008;4.748;2023-11-19T04:08:42;12.60;99.90
15127;DHT22;7664;52.008;4.748;2023-11-19T04:11:10;12.60;99.90
15127;DHT22;7664;52.008;4.748;2023-11-19T04:13:38;12.60;99.90
15127;DHT22;7664;52.008;4.748;2023-11-19T04:16:07;12.60;99.90
15127;DHT22;7664;52.008;4.748;2023-11-19T04:18:36;12.70;99.90
15127;DHT22;7664;52.008;4.748;2023-11-19T04:21:06;12.70;99.90
15127;DHT22;7664;52.008;4.748;2023-11-19T04:23:36;12.60;99.90
15127;DHT22;7664;52.008;4.748;2023-11-19T04:26:04;12.60;99.90
15127;DHT22;7664;52.008;4.748;2023-11-19T04:28:36;12.60;99.90
15127;DHT22;7664;52.008;4.748;2023-11-19T04:31:04;12.60;99.90
15127;DHT22;7664;52.008;4.748;2023-11-19T04:33:33;12.60;99.90
15127;DHT22;7664;52.008;4.748;2023-11-19T04:36:01;12.60;99.90
15127;DHT22;7664;52.008;4.748;2023-11-19T04:38:29;12.60;99.90
15127;DHT22;7664;52.008;4.748;2023-11-19T04:40:59;12.50;99.90
15127;DHT22;7664;52.008;4.748;2023-11-19T04:43:27;12.50;99.90
15127;DHT22;7664;52.008;4.748;2023-11-19T04:45:55;12.50;99.90
15127;DHT22;7664;52.008;4.748;2023-11-19T04:48:23;12.50;99.90
15127;DHT22;7664;52.008;4.748;2023-11-19T04:50:51;12.50;99.90
15127;DHT22;7664;52.008;4.748;2023-11-19T04:53:19;12.50;99.90
15127;DHT22;7664;52.008;4.748;2023-11-19T04:55:48;12.50;99.90
15127;DHT22;7664;52.008;4.748;2023-11-19T04:58:17;12.50;99.90
15127;DHT22;7664;52.008;4.748;2023-11-19T05:00:45;12.50;99.90
15127;DHT22;7664;52.008;4.748;2023-11-19T05:03:14;12.50;99.90
15127;DHT22;7664;52.008;4.748;2023-11-19T05:05:42;12.50;99.90
15127;DHT22;7664;52.008;4.748;2023-11-19T05:08:10;12.50;99.90
15127;DHT22;7664;52.008;4.748;2023-11-19T05:10:39;12.50;99.90
15127;DHT22;7664;52.008;4.748;2023-11-19T05:13:08;12.40;99.90
15127;DHT22;7664;52.008;4.748;2023-11-19T05:15:38;12.40;99.90
15127;DHT22;7664;52.008;4.748;2023-11-19T05:18:06;12.40;99.90
15127;DHT22;7664;52.008;4.748;2023-11-19T05:20:35;12.40;99.90
15127;DHT22;7664;52.008;4.748;2023-11-19T05:23:03;12.40;99.90
15127;DHT22;7664;52.008;4.748;2023-11-19T05:25:31;12.40;99.90
15127;DHT22;7664;52.008;4.748;2023-11-19T05:27:59;12.40;99.90
15127;DHT22;7664;52.008;4.748;2023-11-19T05:30:27;12.40;99.90
15127;DHT22;7664;52.008;4.748;2023-11-19T05:32:57;12.50;99.90
15127;DHT22;7664;52.008;4.748;2023-11-19T05:35:25;12.40;99.90
15127;DHT22;7664;52.008;4.748;2023-11-19T05:37:53;12.40;99.90
15127;DHT22;7664;52.008;4.748;2023-11-19T05:40:22;12.40;99.90
15127;DHT22;7664;52.008;4.748;2023-11-19T05:42:50;12.40;99.90
15127;DHT22;7664;52.008;4.748;2023-11-19T05:45:18;12.40;99.90
15127;DHT22;7664;52.008;4.748;2023-11-19T05:47:47;12.40;99.90
15127;DHT22;7664;52.008;4.748;2023-11-19T05:50:16;12.40;99.90
15127;DHT22;7664;52.008;4.748;2023-11-19T05:52:44;12.40;99.90
15127;DHT22;7664;52.008;4.748;2023-11-19T05:55:12;12.30;99.90
15127;DHT22;7664;52.008;4.748;2023-11-19T05:57:41;12.40;99.90
15127;DHT22;7664;52.008;4.748;2023-11-19T06:00:12;12.70;99.90
15127;DHT22;7664;52.008;4.748;2023-11-19T06:02:42;12.30;99.90
15127;DHT22;7664;52.008;4.748;2023-11-19T06:05:10;12.30;99.90
15127;DHT22;7664;52.008;4.748;2023-11-19T06:07:40;12.70;99.90
15127;DHT22;7664;52.008;4.748;2023-11-19T06:10:09;12.30;99.90
15127;DHT22;7664;52.008;4.748;2023-11-19T06:12:38;12.30;99.90
15127;DHT22;7664;52.008;4.748;2023-11-19T06:15:09;12.30;99.90
15127;DHT22;7664;52.008;4.748;2023-11-19T06:17:40;12.30;99.90
15127;DHT22;7664;52.008;4.748;2023-11-19T06:20:09;12.30;99.90
15127;DHT22;7664;52.008;4.748;2023-11-19T06:22:40;12.20;99.90
15127;DHT22;7664;52.008;4.748;2023-11-19T06:25:09;12.20;99.90
15127;DHT22;7664;52.008;4.748;2023-11-19T06:27:39;12.20;99.90
15127;DHT22;7664;52.008;4.748;2023-11-19T06:30:08;12.30;99.90
15127;DHT22;7664;52.008;4.748;2023-11-19T06:32:36;12.30;99.90
15127;DHT22;7664;52.008;4.748;2023-11-19T06:35:06;12.20;99.90
15127;DHT22;7664;52.008;4.748;2023-11-19T06:37:34;12.20;99.90
15127;DHT22;7664;52.008;4.748;2023-11-19T06:40:04;12.30;99.90
15127;DHT22;7664;52.008;4.748;2023-11-19T06:42:33;12.20;99.90
15127;DHT22;7664;52.008;4.748;2023-11-19T06:45:01;12.20;99.90
15127;DHT22;7664;52.008;4.748;2023-11-19T06:47:30;12.20;99.90
15127;DHT22;7664;52.008;4.748;2023-11-19T06:49:58;12.20;99.90
15127;DHT22;7664;52.008;4.748;2023-11-19T06:52:26;12.30;99.90
15127;DHT22;7664;52.008;4.748;2023-11-19T06:54:54;12.30;99.90
15127;DHT22;7664;52.008;4.748;2023-11-19T06:57:35;12.20;99.90
15127;DHT22;7664;52.008;4.748;2023-11-19T07:00:05;12.10;99.90
15127;DHT22;7664;52.008;4.748;2023-11-19T07:02:33;12.30;99.90
15127;DHT22;7664;52.008;4.748;2023-11-19T07:05:02;12.20;99.90
15127;DHT22;7664;52.008;4.748;2023-11-19T07:07:31;12.30;99.90
15127;DHT22;7664;52.008;4.748;2023-11-19T07:10:00;12.30;99.90
15127;DHT22;7664;52.008;4.748;2023-11-19T07:12:28;12.30;99.90
15127;DHT22;7664;52.008;4.748;2023-11-19T07:14:58;12.30;99.90
15127;DHT22;7664;52.008;4.748;2023-11-19T07:17:27;12.30;99.90
15127;DHT22;7664;52.008;4.748;2023-11-19T07:19:55;12.30;99.90
15127;DHT22;7664;52.008;4.748;2023-11-19T07:22:27;12.40;99.90
15127;DHT22;7664;52.008;4.748;2023-11-19T07:24:56;12.40;99.90
15127;DHT22;7664;52.008;4.748;2023-11-19T07:27:25;12.50;99.90
15127;DHT22;7664;52.008;4.748;2023-11-19T07:29:54;12.50;99.90
15127;DHT22;7664;52.008;4.748;2023-11-19T07:32:24;12.50;99.90
15127;DHT22;7664;52.008;4.748;2023-11-19T07:34:52;12.50;99.90
15127;DHT22;7664;52.008;4.748;2023-11-19T07:37:20;12.50;99.90
15127;DHT22;7664;52.008;4.748;2023-11-19T07:39:49;12.40;99.90
15127;DHT22;7664;52.008;4.748;2023-11-19T07:42:17;12.50;99.90
15127;DHT22;7664;52.008;4.748;2023-11-19T07:47:13;12.50;99.90
15127;DHT22;7664;52.008;4.748;2023-11-19T07:49:43;12.50;99.90
15127;DHT22;7664;52.008;4.748;2023-11-19T07:52:11;12.50;99.90
15127;DHT22;7664;52.008;4.748;2023-11-19T07:54:42;12.50;99.90
15127;DHT22;7664;52.008;4.748;2023-11-19T07:57:10;12.50;99.90
15127;DHT22;7664;52.008;4.748;2023-11-19T07:59:39;12.50;99.90
15127;DHT22;7664;52.008;4.748;2023-11-19T08:02:08;12.50;99.90
15127;DHT22;7664;52.008;4.748;2023-11-19T08:04:37;12.50;99.90
15127;DHT22;7664;52.008;4.748;2023-11-19T08:07:13;12.40;99.90
15127;DHT22;7664;52.008;4.748;2023-11-19T08:09:41;12.40;99.90
15127;DHT22;7664;52.008;4.748;2023-11-19T08:12:09;12.40;99.90
15127;DHT22;7664;52.008;4.748;2023-11-19T08:14:37;12.40;99.90
15127;DHT22;7664;52.008;4.748;2023-11-19T08:17:06;12.50;99.90
15127;DHT22;7664;52.008;4.748;2023-11-19T08:19:34;12.40;99.90
15127;DHT22;7664;52.008;4.748;2023-11-19T08:22:02;12.40;99.90
15127;DHT22;7664;52.008;4.748;2023-11-19T08:24:31;12.40;99.90
15127;DHT22;7664;52.008;4.748;2023-11-19T08:27:00;13.40;99.90
15127;DHT22;7664;52.008;4.748;2023-11-19T08:29:29;12.50;99.90
15127;DHT22;7664;52.008;4.748;2023-11-19T08:31:57;12.50;99.90
15127;DHT22;7664;52.008;4.748;2023-11-19T08:34:27;12.60;99.90
15127;DHT22;7664;52.008;4.748;2023-11-19T08:36:56;13.50;99.90
15127;DHT22;7664;52.008;4.748;2023-11-19T08:39:24;12.60;99.90
15127;DHT22;7664;52.008;4.748;2023-11-19T08:41:53;12.60;99.90
15127;DHT22;7664;52.008;4.748;2023-11-19T08:44:22;12.70;99.90
15127;DHT22;7664;52.008;4.748;2023-11-19T08:46:50;12.70;99.90
15127;DHT22;7664;52.008;4.748;2023-11-19T08:49:18;12.70;99.90
15127;DHT22;7664;52.008;4.748;2023-11-19T08:51:46;12.80;99.90
15127;DHT22;7664;52.008;4.748;2023-11-19T08:54:14;12.80;99.90
15127;DHT22;7664;52.008;4.748;2023-11-19T08:56:42;12.90;99.90
15127;DHT22;7664;52.008;4.748;2023-11-19T08:59:12;13.00;99.90
15127;DHT22;7664;52.008;4.748;2023-11-19T09:01:42;13.00;99.90
15127;DHT22;7664;52.008;4.748;2023-11-19T09:04:10;12.90;99.90
15127;DHT22;7664;52.008;4.748;2023-11-19T09:06:39;14.00;99.90
15127;DHT22;7664;52.008;4.748;2023-11-19T09:09:07;13.00;99.90
15127;DHT22;7664;52.008;4.748;2023-11-19T09:11:36;13.00;99.90
15127;DHT22;7664;52.008;4.748;2023-11-19T09:14:05;14.20;99.90
15127;DHT22;7664;52.008;4.748;2023-11-19T09:16:34;13.50;99.90
15127;DHT22;7664;52.008;4.748;2023-11-19T09:19:03;13.30;99.90
15127;DHT22;7664;52.008;4.748;2023-11-19T09:21:32;13.30;99.90
15127;DHT22;7664;52.008;4.748;2023-11-19T09:24:04;13.40;99.90
15127;DHT22;7664;52.008;4.748;2023-11-19T09:26:34;13.40;99.90
15127;DHT22;7664;52.008;4.748;2023-11-19T09:29:03;13.40;99.90
15127;DHT22;7664;52.008;4.748;2023-11-19T09:31:31;13.50;99.90
15127;DHT22;7664;52.008;4.748;2023-11-19T09:34:01;13.40;99.90
15127;DHT22;7664;52.008;4.748;2023-11-19T09:36:29;13.40;99.90
15127;DHT22;7664;52.008;4.748;2023-11-19T09:38:57;13.50;99.90
15127;DHT22;7664;52.008;4.748;2023-11-19T09:41:27;13.50;99.90
15127;DHT22;7664;52.008;4.748;2023-11-19T09:43:55;13.60;99.90
15127;DHT22;7664;52.008;4.748;2023-11-19T09:46:23;13.60;99.90
15127;DHT22;7664;52.008;4.748;2023-11-19T09:48:53;13.50;99.90
15127;DHT22;7664;52.008;4.748;2023-11-19T09:51:23;13.60;99.90
15127;DHT22;7664;52.008;4.748;2023-11-19T09:53:52;13.60;99.90
15127;DHT22;7664;52.008;4.748;2023-11-19T09:56:20;13.60;99.90
15127;DHT22;7664;52.008;4.748;2023-11-19T09:58:49;13.60;99.90
15127;DHT22;7664;52.008;4.748;2023-11-19T10:01:17;13.60;99.90
15127;DHT22;7664;52.008;4.748;2023-11-19T10:03:55;13.80;99.90
15127;DHT22;7664;52.008;4.748;2023-11-19T10:06:26;13.70;99.90
15127;DHT22;7664;52.008;4.748;2023-11-19T10:08:54;13.80;99.90
15127;DHT22;7664;52.008;4.748;2023-11-19T10:11:23;13.80;99.90
15127;DHT22;7664;52.008;4.748;2023-11-19T10:13:52;13.80;99.90
15127;DHT22;7664;52.008;4.748;2023-11-19T10:16:21;13.90;99.90
15127;DHT22;7664;52.008;4.748;2023-11-19T10:18:55;13.90;99.90
15127;DHT22;7664;52.008;4.748;2023-11-19T10:21:26;13.90;99.90
15127;DHT22;7664;52.008;4.748;2023-11-19T10:23:55;13.90;99.90
15127;DHT22;7664;52.008;4.748;2023-11-19T10:26:27;13.90;99.90
15127;DHT22;7664;52.008;4.748;2023-11-19T10:28:55;14.00;99.90
15127;DHT22;7664;52.008;4.748;2023-11-19T10:31:24;13.90;99.90
15127;DHT22;7664;52.008;4.748;2023-11-19T10:33:53;13.90;99.90
15127;DHT22;7664;52.008;4.748;2023-11-19T10:36:21;13.90;99.90
15127;DHT22;7664;52.008;4.748;2023-11-19T10:38:56;13.80;99.90
15127;DHT22;7664;52.008;4.748;2023-11-19T10:41:29;13.80;99.90
15127;DHT22;7664;52.008;4.748;2023-11-19T10:43:57;13.80;99.90
15127;DHT22;7664;52.008;4.748;2023-11-19T10:46:37;13.90;99.90
15127;DHT22;7664;52.008;4.748;2023-11-19T10:49:06;13.90;99.90
15127;DHT22;7664;52.008;4.748;2023-11-19T10:51:35;13.90;99.90
15127;DHT22;7664;52.008;4.748;2023-11-19T10:54:06;14.00;99.90
15127;DHT22;7664;52.008;4.748;2023-11-19T10:56:35;14.00;99.90
15127;DHT22;7664;52.008;4.748;2023-11-19T10:59:03;14.00;99.90
15127;DHT22;7664;52.008;4.748;2023-11-19T11:01:52;14.00;99.90
15127;DHT22;7664;52.008;4.748;2023-11-19T11:04:23;14.00;99.90
15127;DHT22;7664;52.008;4.748;2023-11-19T11:06:54;14.00;99.90
15127;DHT22;7664;52.008;4.748;2023-11-19T11:09:24;14.00;99.90
15127;DHT22;7664;52.008;4.748;2023-11-19T11:11:54;14.10;99.90
15127;DHT22;7664;52.008;4.748;2023-11-19T11:14:24;14.10;99.90
15127;DHT22;7664;52.008;4.748;2023-11-19T11:16:53;14.10;99.90
15127;DHT22;7664;52.008;4.748;2023-11-19T11:19:24;14.10;99.90
15127;DHT22;7664;52.008;4.748;2023-11-19T11:21:53;14.20;99.90
15127;DHT22;7664;52.008;4.748;2023-11-19T11:24:44;14.20;99.90
15127;DHT22;7664;52.008;4.748;2023-11-19T11:27:34;14.20;99.90
15127;DHT22;7664;52.008;4.748;2023-11-19T11:30:13;14.20;99.90
15127;DHT22;7664;52.008;4.748;2023-11-19T11:32:48;14.30;99.90
15127;DHT22;7664;52.008;4.748;2023-11-19T11:35:29;14.30;99.90
15127;DHT22;7664;52.008;4.748;2023-11-19T11:38:03;14.30;99.90
15127;DHT22;7664;52.008;4.748;2023-11-19T11:40:33;14.40;99.90
15127;DHT22;7664;52.008;4.748;2023-11-19T11:43:01;14.50;99.90
15127;DHT22;7664;52.008;4.748;2023-11-19T11:45:36;14.50;99.90
15127;DHT22;7664;52.008;4.748;2023-11-19T11:48:10;14.50;99.90
15127;DHT22;7664;52.008;4.748;2023-11-19T11:50:50;14.60;99.90
15127;DHT22;7664;52.008;4.748;2023-11-19T11:53:20;14.60;99.90
15127;DHT22;7664;52.008;4.748;2023-11-19T11:55:59;14.60;99.90
15127;DHT22;7664;52.008;4.748;2023-11-19T11:58:31;14.60;99.90
15127;DHT22;7664;52.008;4.748;2023-11-19T12:01:02;14.60;99.90
15127;DHT22;7664;52.008;4.748;2023-11-19T12:03:33;14.60;99.90
15127;DHT22;7664;52.008;4.748;2023-11-19T12:06:01;14.60;99.90
15127;DHT22;7664;52.008;4.748;2023-11-19T12:08:30;14.60;99.90
15127;DHT22;7664;52.008;4.748;2023-11-19T12:11:01;14.70;99.90
15127;DHT22;7664;52.008;4.748;2023-11-19T12:13:47;14.60;99.90
15127;DHT22;7664;52.008;4.748;2023-11-19T12:16:16;14.70;99.90
15127;DHT22;7664;52.008;4.748;2023-11-19T12:18:44;14.70;99.90
15127;DHT22;7664;52.008;4.748;2023-11-19T12:21:27;14.70;99.90
15127;DHT22;7664;52.008;4.748;2023-11-19T12:23:58;14.70;99.90
15127;DHT22;7664;52.008;4.748;2023-11-19T12:26:33;14.60;99.90
15127;DHT22;7664;52.008;4.748;2023-11-19T12:29:02;14.60;99.90
15127;DHT22;7664;52.008;4.748;2023-11-19T12:31:35;14.60;99.90
15127;DHT22;7664;52.008;4.748;2023-11-19T12:34:10;14.60;99.90
15127;DHT22;7664;52.008;4.748;2023-11-19T12:36:40;14.70;99.90
15127;DHT22;7664;52.008;4.748;2023-11-19T12:39:10;14.60;99.90
15127;DHT22;7664;52.008;4.748;2023-11-19T12:41:55;14.70;99.90
15127;DHT22;7664;52.008;4.748;2023-11-19T12:44:25;14.70;99.90
15127;DHT22;7664;52.008;4.748;2023-11-19T12:47:04;14.70;99.90
15127;DHT22;7664;52.008;4.748;2023-11-19T12:49:34;14.70;99.90
15127;DHT22;7664;52.008;4.748;2023-11-19T12:52:10;14.70;99.90
15127;DHT22;7664;52.008;4.748;2023-11-19T12:54:39;14.70;99.90
15127;DHT22;7664;52.008;4.748;2023-11-19T12:57:12;14.70;99.90
15127;DHT22;7664;52.008;4.748;2023-11-19T12:59:40;14.70;99.90
15127;DHT22;7664;52.008;4.748;2023-11-19T13:02:10;14.60;99.90
15127;DHT22;7664;52.008;4.748;2023-11-19T13:04:38;14.60;99.90
15127;DHT22;7664;52.008;4.748;2023-11-19T13:07:06;14.60;99.90
15127;DHT22;7664;52.008;4.748;2023-11-19T13:09:34;14.60;99.90
15127;DHT22;7664;52.008;4.748;2023-11-19T13:12:12;14.50;99.90
15127;DHT22;7664;52.008;4.748;2023-11-19T13:14:41;14.50;99.90
15127;DHT22;7664;52.008;4.748;2023-11-19T13:17:14;14.50;99.90
15127;DHT22;7664;52.008;4.748;2023-11-19T13:19:42;14.50;99.90
15127;DHT22;7664;52.008;4.748;2023-11-19T13:22:10;14.40;99.90
15127;DHT22;7664;52.008;4.748;2023-11-19T13:24:38;14.50;99.90
15127;DHT22;7664;52.008;4.748;2023-11-19T13:27:07;14.50;99.90
15127;DHT22;7664;52.008;4.748;2023-11-19T13:29:36;14.40;99.90
15127;DHT22;7664;52.008;4.748;2023-11-19T13:32:05;14.40;99.90
15127;DHT22;7664;52.008;4.748;2023-11-19T13:34:33;14.40;99.90
15127;DHT22;7664;52.008;4.748;2023-11-19T13:37:01;14.30;99.90
15127;DHT22;7664;52.008;4.748;2023-11-19T13:39:30;14.30;99.90
15127;DHT22;7664;52.008;4.748;2023-11-19T13:41:58;14.30;99.90
15127;DHT22;7664;52.008;4.748;2023-11-19T13:44:29;14.40;99.90
15127;DHT22;7664;52.008;4.748;2023-11-19T13:46:58;14.40;99.90
15127;DHT22;7664;52.008;4.748;2023-11-19T13:49:26;14.40;99.90
15127;DHT22;7664;52.008;4.748;2023-11-19T13:51:55;14.40;99.90
15127;DHT22;7664;52.008;4.748;2023-11-19T13:54:23;14.40;99.90
15127;DHT22;7664;52.008;4.748;2023-11-19T13:56:54;14.40;99.90
15127;DHT22;7664;52.008;4.748;2023-11-19T13:59:24;14.40;99.90
15127;DHT22;7664;52.008;4.748;2023-11-19T14:01:52;14.40;99.90
15127;DHT22;7664;52.008;4.748;2023-11-19T14:04:22;14.30;99.90
15127;DHT22;7664;52.008;4.748;2023-11-19T14:06:50;14.30;99.90
15127;DHT22;7664;52.008;4.748;2023-11-19T14:09:18;14.30;99.90
15127;DHT22;7664;52.008;4.748;2023-11-19T14:11:46;14.20;99.90
15127;DHT22;7664;52.008;4.748;2023-11-19T14:14:15;14.20;99.90
15127;DHT22;7664;52.008;4.748;2023-11-19T14:16:43;14.20;99.90
15127;DHT22;7664;52.008;4.748;2023-11-19T14:19:12;14.10;99.90
15127;DHT22;7664;52.008;4.748;2023-11-19T14:21:42;14.10;99.90
15127;DHT22;7664;52.008;4.748;2023-11-19T14:24:11;14.10;99.90
15127;DHT22;7664;52.008;4.748;2023-11-19T14:26:40;14.10;99.90
15127;DHT22;7664;52.008;4.748;2023-11-19T14:29:08;14.10;99.90
15127;DHT22;7664;52.008;4.748;2023-11-19T14:31:36;14.10;99.90
15127;DHT22;7664;52.008;4.748;2023-11-19T14:34:04;14.00;99.90
15127;DHT22;7664;52.008;4.748;2023-11-19T14:36:32;14.00;99.90
15127;DHT22;7664;52.008;4.748;2023-11-19T14:39:02;14.00;99.90
15127;DHT22;7664;52.008;4.748;2023-11-19T14:41:30;14.00;99.90
15127;DHT22;7664;52.008;4.748;2023-11-19T14:43:58;14.00;99.90
15127;DHT22;7664;52.008;4.748;2023-11-19T14:46:28;14.00;99.90
15127;DHT22;7664;52.008;4.748;2023-11-19T14:48:56;14.00;99.90
15127;DHT22;7664;52.008;4.748;2023-11-19T14:51:24;14.00;99.90
15127;DHT22;7664;52.008;4.748;2023-11-19T14:53:52;14.00;99.90
15127;DHT22;7664;52.008;4.748;2023-11-19T14:56:21;13.90;99.90
15127;DHT22;7664;52.008;4.748;2023-11-19T14:58:49;14.00;99.90
15127;DHT22;7664;52.008;4.748;2023-11-19T15:01:18;14.00;99.90
15127;DHT22;7664;52.008;4.748;2023-11-19T15:03:46;14.00;99.90
15127;DHT22;7664;52.008;4.748;2023-11-19T15:06:17;14.00;99.90
15127;DHT22;7664;52.008;4.748;2023-11-19T15:08:45;14.00;99.90
15127;DHT22;7664;52.008;4.748;2023-11-19T15:11:13;14.00;99.90
15127;DHT22;7664;52.008;4.748;2023-11-19T15:13:42;14.00;99.90
15127;DHT22;7664;52.008;4.748;2023-11-19T15:16:10;13.90;99.90
15127;DHT22;7664;52.008;4.748;2023-11-19T15:18:38;14.00;99.90
15127;DHT22;7664;52.008;4.748;2023-11-19T15:21:07;14.00;99.90
15127;DHT22;7664;52.008;4.748;2023-11-19T15:23:36;13.90;99.90
15127;DHT22;7664;52.008;4.748;2023-11-19T15:26:05;13.90;99.90
15127;DHT22;7664;52.008;4.748;2023-11-19T15:28:35;13.90;99.90
15127;DHT22;7664;52.008;4.748;2023-11-19T15:31:04;13.90;99.90
15127;DHT22;7664;52.008;4.748;2023-11-19T15:33:32;13.90;99.90
15127;DHT22;7664;52.008;4.748;2023-11-19T15:36:00;13.90;99.90
15127;DHT22;7664;52.008;4.748;2023-11-19T15:38:30;13.80;99.90
15127;DHT22;7664;52.008;4.748;2023-11-19T15:40:58;13.80;99.90
15127;DHT22;7664;52.008;4.748;2023-11-19T15:43:26;13.80;99.90
15127;DHT22;7664;52.008;4.748;2023-11-19T15:45:54;13.80;99.90
15127;DHT22;7664;52.008;4.748;2023-11-19T15:48:23;13.80;99.90
15127;DHT22;7664;52.008;4.748;2023-11-19T15:50:52;13.70;99.90
15127;DHT22;7664;52.008;4.748;2023-11-19T15:53:20;13.80;99.90
15127;DHT22;7664;52.008;4.748;2023-11-19T15:55:48;13.70;99.90
15127;DHT22;7664;52.008;4.748;2023-11-19T15:58:16;13.70;99.90
15127;DHT22;7664;52.008;4.748;2023-11-19T16:00:44;13.80;99.90
15127;DHT22;7664;52.008;4.748;2023-11-19T16:03:14;13.70;99.90
15127;DHT22;7664;52.008;4.748;2023-11-19T16:05:44;13.70;99.90
15127;DHT22;7664;52.008;4.748;2023-11-19T16:08:20;13.70;99.90